CMB859 Details

Departure: Ambouli International Airport (HDAM)
Arrival: Bahrain International Airport (OBBI) at N/A
Route: TORBA2E TORBA B535 KRA UM651 NADKI M318 DEGPA UT100 KUTNA UL564 BAT UL564 DOH VEDED P699 SOGAT
Notes: USTRANSCOM CONTRACT FLIGHT


Current Weather Information
HDAM 191500Z 07006KT FEW026CB 35/22 Q1003
OBBI 191630Z 36008KT 330V030 CAVOK 34/28 Q1004 NOSIG